Time;durP1;ratioP1;P1;durP2;ratioP2;P2;SDS_P1;SDS_P2;PMS_P1;PMS_P2;Temp;Humidity;BMP_temperature;BMP_pressure;BME280_temperature;BME280_humidity;BME280_pressure;Samples;Min_cycle;Max_cycle;Signal;HPM_P1;HPM_P2
2022/05/20 00:01:30;;;;;;;9.27;4.07;;;13.40;99.90;;;;;;4977833;28;20049;-85
2022/05/20 00:03:55;;;;;;;8.95;3.88;;;13.40;99.90;;;;;;4970603;28;20085;-86
2022/05/20 00:06:21;;;;;;;11.77;4.80;;;13.40;99.90;;;;;;4975027;28;20038;-85
2022/05/20 00:08:48;;;;;;;10.75;4.63;;;13.40;99.90;;;;;;4983183;28;20034;-85
2022/05/20 00:11:13;;;;;;;10.23;4.70;;;13.40;99.90;;;;;;4991822;28;20057;-85
2022/05/20 00:13:39;;;;;;;10.48;4.97;;;13.50;99.90;;;;;;4964616;28;20524;-85
2022/05/20 00:16:05;;;;;;;12.48;5.10;;;13.50;99.90;;;;;;4968846;28;20059;-85
2022/05/20 00:18:31;;;;;;;10.73;5.25;;;13.40;99.90;;;;;;4934217;28;20117;-86
2022/05/20 00:20:59;;;;;;;9.60;5.05;;;13.50;99.90;;;;;;4971283;28;20042;-85
2022/05/20 00:23:25;;;;;;;10.93;4.95;;;13.50;99.90;;;;;;4984115;28;20285;-85
2022/05/20 00:25:52;;;;;;;9.45;4.60;;;13.50;99.90;;;;;;4983399;28;20056;-86
2022/05/20 00:28:28;;;;;;;11.82;4.88;;;13.50;99.90;;;;;;4971675;28;20050;-85
2022/05/20 00:30:58;;;;;;;10.70;5.10;;;13.40;99.90;;;;;;4969089;28;20047;-85
2022/05/20 00:33:26;;;;;;;12.75;5.88;;;13.40;99.90;;;;;;4966449;28;20031;-87
2022/05/20 00:35:51;;;;;;;11.43;5.80;;;13.40;99.90;;;;;;4971359;28;20039;-86
2022/05/20 00:38:18;;;;;;;13.88;6.10;;;13.40;99.90;;;;;;4990600;28;20124;-84
2022/05/20 00:40:46;;;;;;;11.60;6.07;;;13.30;99.90;;;;;;4973340;28;20042;-85
2022/05/20 00:43:36;;;;;;;12.95;6.80;;;13.30;99.90;;;;;;4978204;28;20042;-86
2022/05/20 00:46:08;;;;;;;11.90;6.68;;;13.20;99.90;;;;;;4994498;28;20105;-86
2022/05/20 00:48:34;;;;;;;12.85;7.03;;;13.20;99.90;;;;;;4976624;28;20125;-85
2022/05/20 00:51:11;;;;;;;13.73;7.00;;;13.20;99.90;;;;;;4977496;28;20038;-85
2022/05/20 00:54:04;;;;;;;11.77;6.55;;;13.20;99.90;;;;;;4972548;28;20070;-85
2022/05/20 00:56:33;;;;;;;;;;;13.10;99.90;;;;;;4975578;28;20165;-85
2022/05/20 00:58:59;;;;;;;12.13;6.95;;;13.00;99.90;;;;;;4988944;28;20417;-86
2022/05/20 01:01:26;;;;;;;13.32;7.90;;;13.00;99.90;;;;;;4974048;28;20031;-85
2022/05/20 01:03:53;;;;;;;12.43;7.75;;;13.00;99.90;;;;;;4989653;28;20130;-85
2022/05/20 01:06:19;;;;;;;12.30;7.30;;;12.90;99.90;;;;;;4995459;28;20034;-86
2022/05/20 01:08:45;;;;;;;15.10;7.57;;;12.90;99.90;;;;;;4976251;28;20749;-85
2022/05/20 01:11:10;;;;;;;14.82;7.75;;;12.90;99.90;;;;;;4973823;28;20038;-85
2022/05/20 01:13:36;;;;;;;13.80;6.75;;;12.90;99.90;;;;;;4962360;28;20031;-86
2022/05/20 01:16:07;;;;;;;12.63;6.63;;;12.80;99.90;;;;;;4971720;28;20050;-85
2022/05/20 01:18:36;;;;;;;12.85;6.93;;;12.90;99.90;;;;;;4989735;28;20038;-86
2022/05/20 01:21:03;;;;;;;12.93;7.03;;;12.90;99.90;;;;;;4975456;28;20480;-85
2022/05/20 01:23:33;;;;;;;12.82;6.95;;;12.80;99.90;;;;;;4973995;28;20030;-86
2022/05/20 01:25:59;;;;;;;12.05;6.38;;;12.80;99.90;;;;;;4990751;28;20034;-86
2022/05/20 01:28:27;;;;;;;12.10;5.90;;;12.80;99.90;;;;;;4933685;28;20126;-85
2022/05/20 01:30:56;;;;;;;11.98;6.82;;;12.80;99.90;;;;;;4959239;28;20058;-85
2022/05/20 01:33:31;;;;;;;14.52;7.10;;;12.80;99.90;;;;;;4988950;28;20045;-86
2022/05/20 01:35:59;;;;;;;12.98;7.30;;;12.80;99.90;;;;;;4990479;28;20034;-85
2022/05/20 01:38:25;;;;;;;14.57;7.28;;;12.80;99.90;;;;;;4974668;28;20134;-85
2022/05/20 01:41:10;;;;;;;16.05;7.03;;;12.80;99.90;;;;;;4975497;28;20042;-85
2022/05/20 01:43:54;;;;;;;12.45;7.28;;;12.60;99.90;;;;;;4988932;28;20046;-85
2022/05/20 01:46:43;;;;;;;13.90;7.63;;;12.80;99.90;;;;;;4975410;28;20065;-85
2022/05/20 01:49:49;;;;;;;12.35;7.40;;;12.80;99.90;;;;;;4973548;28;20113;-86
2022/05/20 01:52:33;;;;;;;12.65;8.23;;;12.80;99.90;;;;;;4972879;28;20038;-86
2022/05/20 01:55:19;;;;;;;13.30;7.95;;;12.80;99.90;;;;;;4973960;28;20119;-85
2022/05/20 01:58:03;;;;;;;14.63;9.15;;;12.80;99.90;;;;;;4980506;28;20046;-85
2022/05/20 02:00:31;;;;;;;15.50;8.43;;;12.80;99.90;;;;;;4995106;28;20038;-85
2022/05/20 02:03:12;;;;;;;14.45;8.95;;;12.80;99.90;;;;;;4975285;28;20435;-86
2022/05/20 02:05:50;;;;;;;16.52;9.13;;;12.80;99.90;;;;;;5003719;28;20529;-84
2022/05/20 02:08:25;;;;;;;15.65;9.82;;;12.80;99.90;;;;;;4979425;28;20050;-85
2022/05/20 02:11:00;;;;;;;14.52;9.73;;;12.70;99.90;;;;;;4975164;28;20038;-84
2022/05/20 02:13:29;;;;;;;14.65;10.00;;;12.70;99.90;;;;;;4990109;28;20038;-85
2022/05/20 02:16:01;;;;;;;18.83;11.20;;;12.70;99.90;;;;;;4975833;28;20062;-85
2022/05/20 02:18:46;;;;;;;16.10;10.15;;;12.70;99.90;;;;;;4973352;28;20050;-84
2022/05/20 02:21:16;;;;;;;16.00;10.52;;;12.60;99.90;;;;;;5006667;28;20121;-85
2022/05/20 02:23:47;;;;;;;17.00;9.60;;;12.60;99.90;;;;;;5006827;28;20065;-85
2022/05/20 02:26:16;;;;;;;15.55;9.57;;;12.60;99.90;;;;;;4989028;28;20051;-84
2022/05/20 02:28:45;;;;;;;17.25;9.45;;;12.60;99.90;;;;;;4988229;28;20571;-86
2022/05/20 02:31:15;;;;;;;15.30;10.18;;;12.50;99.90;;;;;;4971897;28;20038;-85
2022/05/20 02:33:41;;;;;;;16.55;10.55;;;12.50;99.90;;;;;;4989710;28;20035;-86
2022/05/20 02:36:21;;;;;;;16.55;9.77;;;12.50;99.90;;;;;;4940797;28;20392;-86
2022/05/20 02:38:47;;;;;;;16.20;10.05;;;12.50;99.90;;;;;;4973153;28;20031;-85
2022/05/20 02:41:12;;;;;;;17.05;10.13;;;12.50;99.90;;;;;;5007248;28;20433;-84
2022/05/20 02:43:38;;;;;;;18.38;9.73;;;12.50;99.90;;;;;;4930119;28;20436;-86
2022/05/20 02:46:04;;;;;;;17.48;9.90;;;12.40;99.90;;;;;;4953662;28;20043;-85
2022/05/20 02:48:29;;;;;;;16.40;10.85;;;12.40;99.90;;;;;;4950521;28;20393;-85
2022/05/20 02:50:58;;;;;;;18.35;10.38;;;12.40;99.90;;;;;;4944514;28;20307;-86
2022/05/20 02:53:24;;;;;;;18.27;10.38;;;12.50;99.90;;;;;;4973552;28;20554;-86
2022/05/20 02:55:49;;;;;;;18.08;10.68;;;12.50;99.90;;;;;;4992918;28;20121;-85
2022/05/20 03:04:10;;;;;;;18.75;12.05;;;12.50;99.90;;;;;;4975727;28;20447;-86
2022/05/20 03:06:40;;;;;;;18.80;12.73;;;12.50;99.90;;;;;;4962507;28;20038;-86
2022/05/20 03:09:08;;;;;;;20.08;12.77;;;12.50;99.90;;;;;;4972691;28;20026;-86
2022/05/20 03:11:34;;;;;;;17.80;11.32;;;12.40;99.90;;;;;;4983871;28;20053;-86
2022/05/20 03:14:01;;;;;;;19.02;11.85;;;12.40;99.90;;;;;;4972551;28;20110;-86
2022/05/20 03:16:27;;;;;;;20.17;11.93;;;12.40;99.90;;;;;;4986164;28;20050;-86
2022/05/20 03:18:53;;;;;;;17.38;11.57;;;12.50;99.90;;;;;;5007201;28;20046;-86
2022/05/20 03:21:18;;;;;;;17.67;11.50;;;12.40;99.90;;;;;;4973162;28;20161;-86
2022/05/20 03:23:44;;;;;;;15.25;10.10;;;12.50;99.90;;;;;;4980883;28;20050;-86
2022/05/20 03:26:10;;;;;;;17.20;10.68;;;12.30;99.90;;;;;;4976241;28;20037;-86
2022/05/20 03:28:35;;;;;;;19.77;11.35;;;12.30;99.90;;;;;;4962985;28;20033;-86
2022/05/20 03:31:07;;;;;;;19.00;11.30;;;12.30;99.90;;;;;;4958406;28;20045;-86
2022/05/20 03:33:34;;;;;;;19.45;12.02;;;12.30;99.90;;;;;;4989981;28;20026;-86
2022/05/20 03:36:00;;;;;;;15.70;11.02;;;12.30;99.90;;;;;;4997642;28;20083;-86
2022/05/20 03:38:26;;;;;;;18.08;11.50;;;12.30;99.90;;;;;;4957264;28;20432;-86
2022/05/20 03:40:51;;;;;;;17.95;11.48;;;12.30;99.90;;;;;;4974797;28;20034;-86
2022/05/20 03:43:17;;;;;;;20.17;11.02;;;12.30;99.90;;;;;;4958582;28;20117;-86
2022/05/20 03:45:43;;;;;;;19.73;11.57;;;12.30;99.90;;;;;;4991514;28;20557;-86
2022/05/20 03:48:09;;;;;;;21.63;12.18;;;12.30;99.90;;;;;;4987810;28;20046;-86
2022/05/20 03:50:35;;;;;;;18.63;11.60;;;12.30;99.90;;;;;;4975943;28;20511;-86
2022/05/20 03:53:01;;;;;;;17.27;11.45;;;12.30;99.90;;;;;;4979483;28;20041;-85
2022/05/20 03:55:27;;;;;;;16.02;11.05;;;12.30;99.90;;;;;;4992822;28;20601;-86
2022/05/20 03:57:53;;;;;;;20.60;11.43;;;12.30;99.90;;;;;;4974485;28;20605;-86
2022/05/20 04:00:19;;;;;;;18.73;10.90;;;12.30;99.90;;;;;;4975973;28;20125;-86
2022/05/20 04:02:45;;;;;;;18.48;10.60;;;12.30;99.90;;;;;;4972907;28;20048;-86
2022/05/20 04:05:11;;;;;;;19.08;11.40;;;12.30;99.90;;;;;;4977229;28;20124;-86
2022/05/20 04:07:40;;;;;;;18.15;11.48;;;12.30;99.90;;;;;;4973524;28;20065;-86
2022/05/20 04:10:07;;;;;;;19.60;11.20;;;12.30;99.90;;;;;;4991831;28;20088;-86
2022/05/20 04:12:35;;;;;;;20.15;11.45;;;12.30;99.90;;;;;;4973834;28;20042;-86
2022/05/20 04:15:02;;;;;;;18.00;11.13;;;12.30;99.90;;;;;;4973619;28;20129;-86
2022/05/20 04:17:28;;;;;;;18.27;11.10;;;12.40;99.90;;;;;;4971964;28;20140;-86
2022/05/20 04:19:54;;;;;;;18.05;11.52;;;12.40;99.90;;;;;;5000181;28;20121;-86
2022/05/20 04:22:25;;;;;;;16.98;11.70;;;12.40;99.90;;;;;;4973546;28;20072;-85
2022/05/20 04:24:51;;;;;;;16.23;10.80;;;12.50;99.90;;;;;;4975306;28;20042;-85
2022/05/20 04:27:17;;;;;;;17.77;11.52;;;12.50;99.90;;;;;;4992327;28;20124;-86
2022/05/20 04:29:43;;;;;;;20.00;12.32;;;12.50;99.90;;;;;;4972614;28;20130;-86
2022/05/20 04:32:09;;;;;;;20.27;12.27;;;12.60;99.90;;;;;;4968529;28;20088;-85
2022/05/20 04:34:34;;;;;;;17.48;11.20;;;12.60;99.90;;;;;;4989757;28;20046;-86
2022/05/20 04:37:00;;;;;;;22.45;12.38;;;12.60;99.90;;;;;;4975346;28;20038;-86
2022/05/20 04:39:26;;;;;;;17.73;12.23;;;12.50;99.90;;;;;;4979080;28;20056;-86
2022/05/20 04:47:26;;;;;;;18.02;12.50;;;12.50;99.90;;;;;;4990533;28;20193;-86
2022/05/20 04:49:52;;;;;;;18.45;12.80;;;12.50;99.90;;;;;;4971269;28;20039;-86
2022/05/20 04:52:18;;;;;;;19.20;13.13;;;12.50;99.90;;;;;;4984257;28;20034;-86
2022/05/20 04:54:50;;;;;;;17.27;12.70;;;12.60;99.90;;;;;;4989396;28;20041;-86
2022/05/20 04:57:20;;;;;;;18.10;12.63;;;12.60;99.90;;;;;;4959108;28;20549;-86
2022/05/20 04:59:46;;;;;;;19.13;12.65;;;12.60;99.90;;;;;;4995958;28;20502;-86
2022/05/20 05:02:13;;;;;;;18.15;12.68;;;12.70;99.90;;;;;;4993533;28;20038;-86
2022/05/20 05:04:39;;;;;;;20.58;13.18;;;12.70;99.90;;;;;;4989163;28;20415;-86
2022/05/20 05:07:09;;;;;;;17.92;13.18;;;12.70;99.90;;;;;;4972736;28;20384;-86
2022/05/20 05:09:39;;;;;;;19.98;13.45;;;12.80;99.90;;;;;;4986776;28;20572;-86
2022/05/20 05:12:05;;;;;;;18.15;12.63;;;12.90;99.90;;;;;;4989697;28;20041;-86
2022/05/20 05:14:40;;;;;;;21.73;13.05;;;12.90;99.90;;;;;;4985699;28;20077;-86
2022/05/20 05:17:08;;;;;;;22.90;12.90;;;13.00;99.90;;;;;;4983648;28;20450;-86
2022/05/20 05:19:39;;;;;;;19.50;12.70;;;13.10;99.90;;;;;;4989059;28;20042;-86
2022/05/20 05:22:06;;;;;;;19.60;12.85;;;13.20;99.90;;;;;;4976742;28;20168;-85
2022/05/20 05:24:34;;;;;;;21.15;12.40;;;13.20;99.90;;;;;;4989950;28;20057;-86
2022/05/20 05:27:00;;;;;;;19.73;14.35;;;13.30;99.90;;;;;;4988265;28;20397;-85
2022/05/20 05:29:26;;;;;;;20.20;12.88;;;13.40;99.90;;;;;;4970981;28;20046;-86
2022/05/20 05:31:52;;;;;;;18.75;12.60;;;13.40;99.90;;;;;;4995699;28;20034;-86
2022/05/20 05:34:17;;;;;;;18.13;12.15;;;13.50;99.90;;;;;;4973818;28;20530;-86
2022/05/20 05:36:43;;;;;;;17.55;12.18;;;13.60;99.90;;;;;;4968414;28;20113;-85
2022/05/20 05:39:09;;;;;;;19.70;11.98;;;13.70;99.90;;;;;;5009197;28;20096;-86
2022/05/20 05:41:35;;;;;;;20.05;12.23;;;13.70;99.90;;;;;;4973334;28;20577;-86
2022/05/20 05:44:01;;;;;;;16.90;11.80;;;13.70;99.90;;;;;;4982846;28;20596;-86
2022/05/20 05:46:27;;;;;;;16.60;11.32;;;13.80;99.90;;;;;;4987325;28;20041;-86
2022/05/20 05:48:52;;;;;;;16.15;11.45;;;13.80;99.90;;;;;;4984926;28;20045;-87
2022/05/20 05:51:18;;;;;;;19.00;11.73;;;13.80;99.90;;;;;;4944408;28;20046;-86
2022/05/20 05:53:44;;;;;;;17.60;12.73;;;13.80;99.90;;;;;;4975853;28;20042;-87
2022/05/20 05:56:10;;;;;;;18.08;12.00;;;13.90;99.90;;;;;;4945924;28;20430;-87
2022/05/20 05:58:37;;;;;;;19.45;12.10;;;14.00;99.90;;;;;;4995313;28;20499;-86
2022/05/20 06:01:04;;;;;;;19.33;12.20;;;14.00;99.90;;;;;;4976551;28;20522;-86
2022/05/20 06:03:30;;;;;;;18.00;11.30;;;14.20;99.90;;;;;;4978783;28;20278;-86
2022/05/20 06:05:56;;;;;;;15.80;10.20;;;14.20;99.90;;;;;;4993408;28;20037;-86
2022/05/20 06:08:22;;;;;;;20.20;10.35;;;14.20;99.90;;;;;;4958938;28;20037;-87
2022/05/20 06:10:48;;;;;;;16.00;9.98;;;14.30;99.90;;;;;;4978497;28;20121;-86
2022/05/20 06:13:25;;;;;;;18.48;11.13;;;14.40;99.90;;;;;;4965635;28;20148;-87
2022/05/20 06:15:52;;;;;;;16.98;10.07;;;14.60;99.90;;;;;;4972917;28;20065;-87
2022/05/20 06:18:18;;;;;;;17.25;10.93;;;14.70;99.90;;;;;;4983494;28;20133;-87
2022/05/20 06:20:43;;;;;;;16.38;10.30;;;14.90;99.90;;;;;;4950337;28;20462;-87
2022/05/20 06:23:09;;;;;;;18.02;9.48;;;15.00;99.90;;;;;;4952153;28;20046;-85
2022/05/20 06:25:35;;;;;;;17.55;10.18;;;15.10;99.90;;;;;;4942548;28;20046;-85
2022/05/20 06:28:06;;;;;;;15.95;9.95;;;15.20;99.90;;;;;;4974409;28;20035;-86
2022/05/20 06:30:32;;;;;;;15.25;9.25;;;15.10;99.90;;;;;;4954865;28;20094;-85
2022/05/20 06:32:58;;;;;;;16.95;9.95;;;15.10;99.90;;;;;;4970453;28;20038;-85
2022/05/20 06:40:52;;;;;;;16.67;9.30;;;15.30;99.90;;;;;;4972331;28;20054;-86
2022/05/20 06:43:20;;;;;;;16.17;7.97;;;15.30;99.90;;;;;;4954010;28;20042;-86
2022/05/20 06:45:52;;;;;;;14.73;8.00;;;15.30;99.90;;;;;;4971268;28;20323;-86
2022/05/20 06:48:17;;;;;;;14.23;7.20;;;15.40;99.90;;;;;;4968164;28;20074;-87
2022/05/20 06:50:43;;;;;;;14.75;7.47;;;15.50;99.90;;;;;;4957558;28;20120;-85
2022/05/20 06:53:09;;;;;;;14.20;7.18;;;15.60;99.90;;;;;;4990067;28;20451;-88
2022/05/20 06:55:35;;;;;;;13.43;7.38;;;15.70;99.90;;;;;;4975976;28;20511;-87
2022/05/20 06:58:01;;;;;;;13.93;6.60;;;15.70;99.90;;;;;;4988470;28;20042;-88
2022/05/20 07:00:27;;;;;;;13.30;6.18;;;15.80;99.90;;;;;;4958196;28;20518;-87
2022/05/20 07:02:53;;;;;;;12.50;6.40;;;15.80;99.90;;;;;;4986368;28;20399;-87
2022/05/20 07:05:19;;;;;;;11.75;6.18;;;15.80;99.90;;;;;;4990541;28;20399;-87
2022/05/20 07:07:46;;;;;;;12.82;6.40;;;15.80;99.90;;;;;;4973662;28;20487;-86
2022/05/20 07:10:13;;;;;;;12.77;6.80;;;15.70;99.90;;;;;;4972420;28;20044;-86
2022/05/20 07:12:39;;;;;;;15.10;7.72;;;15.70;99.90;;;;;;4988861;28;20041;-86
2022/05/20 07:15:07;;;;;;;15.02;7.25;;;15.60;99.90;;;;;;4966918;28;21207;-84
2022/05/20 07:17:33;;;;;;;14.57;7.22;;;15.60;99.90;;;;;;5000678;28;20497;-85
2022/05/20 07:19:59;;;;;;;13.80;7.80;;;15.70;99.90;;;;;;4971330;28;20769;-87
2022/05/20 07:22:25;;;;;;;14.10;7.35;;;15.90;99.90;;;;;;4954323;28;20046;-85
2022/05/20 07:24:51;;;;;;;12.55;6.20;;;16.00;99.90;;;;;;4990924;28;20507;-87
2022/05/20 07:27:17;;;;;;;12.85;6.05;;;16.20;99.90;;;;;;4941763;28;20097;-86
2022/05/20 07:29:43;;;;;;;11.00;4.88;;;16.40;99.90;;;;;;4989067;28;20034;-87
2022/05/20 07:32:09;;;;;;;9.68;3.45;;;16.60;99.90;;;;;;4980295;28;20575;-86
2022/05/20 07:34:35;;;;;;;10.88;4.03;;;16.80;99.90;;;;;;4993007;28;20089;-87
2022/05/20 07:37:01;;;;;;;11.32;4.88;;;17.10;99.90;;;;;;4981869;28;20042;-86
2022/05/20 07:39:27;;;;;;;11.02;5.20;;;17.20;99.90;;;;;;4992422;28;20191;-85
2022/05/20 07:41:55;;;;;;;11.98;5.72;;;17.20;99.90;;;;;;4995193;28;20095;-86
2022/05/20 07:44:21;;;;;;;12.07;5.95;;;17.20;99.90;;;;;;4962824;28;20061;-87
2022/05/20 07:46:47;;;;;;;13.60;5.80;;;17.00;99.90;;;;;;4978632;28;20495;-84
2022/05/20 07:49:14;;;;;;;12.18;5.78;;;16.90;99.90;;;;;;4993872;28;20858;-85
2022/05/20 07:51:43;;;;;;;10.70;5.28;;;16.70;99.90;;;;;;4980620;28;20049;-86
2022/05/20 07:54:13;;;;;;;11.85;5.13;;;16.70;99.90;;;;;;4980243;28;20073;-84
2022/05/20 07:56:49;;;;;;;11.85;4.40;;;16.70;99.90;;;;;;4970771;28;20047;-84
2022/05/20 07:59:24;;;;;;;10.02;4.80;;;16.70;99.90;;;;;;4976542;28;20541;-86
2022/05/20 08:01:52;;;;;;;11.70;4.63;;;16.60;99.90;;;;;;4986435;28;20034;-85
2022/05/20 08:05:01;;;;;;;11.80;5.03;;;16.60;99.90;;;;;;4976162;28;20043;-87
2022/05/20 08:07:33;;;;;;;10.75;4.10;;;16.60;99.90;;;;;;4980779;28;20418;-86
2022/05/20 08:10:04;;;;;;;12.55;4.95;;;16.60;99.90;;;;;;4973287;28;20085;-86
2022/05/20 08:12:30;;;;;;;11.05;4.50;;;16.60;99.90;;;;;;4973464;28;20488;-86
2022/05/20 08:14:55;;;;;;;9.75;3.80;;;16.60;99.90;;;;;;4956995;28;20069;-87
2022/05/20 08:17:26;;;;;;;10.23;3.97;;;16.60;99.90;;;;;;4978174;28;20046;-85
2022/05/20 08:19:54;;;;;;;11.30;4.05;;;16.70;99.90;;;;;;4977878;28;20058;-87
2022/05/20 08:22:24;;;;;;;10.18;3.90;;;16.90;99.90;;;;;;4969232;28;20507;-87
2022/05/20 08:24:54;;;;;;;9.57;3.60;;;17.10;99.90;;;;;;4945742;28;20046;-86
2022/05/20 08:27:21;;;;;;;9.35;3.50;;;17.10;99.90;;;;;;4985471;28;20443;-87
2022/05/20 08:29:47;;;;;;;9.55;3.60;;;17.10;99.90;;;;;;4957282;28;20035;-87
2022/05/20 08:32:15;;;;;;;11.02;3.47;;;17.40;99.90;;;;;;4945396;28;20448;-87
2022/05/20 08:34:43;;;;;;;8.60;3.17;;;17.50;99.90;;;;;;4987661;28;20535;-87
2022/05/20 08:37:09;;;;;;;10.43;3.17;;;17.80;99.90;;;;;;4973548;28;20052;-87
2022/05/20 08:39:35;;;;;;;9.50;3.45;;;18.10;99.90;;;;;;4989528;28;20049;-88
2022/05/20 08:42:01;;;;;;;9.57;3.45;;;18.20;99.90;;;;;;4970422;28;20624;-87
2022/05/20 08:44:27;;;;;;;8.63;2.88;;;18.20;99.90;;;;;;4984311;28;20112;-86
2022/05/20 08:47:27;;;;;;;9.23;3.10;;;18.10;99.90;;;;;;4953255;28;20476;-86
2022/05/20 08:49:57;;;;;;;7.32;2.78;;;18.20;99.90;;;;;;4966432;28;20035;-86
2022/05/20 08:52:25;;;;;;;8.90;3.20;;;18.40;99.90;;;;;;4988918;28;20056;-85
2022/05/20 08:54:50;;;;;;;10.00;3.83;;;18.50;99.90;;;;;;4966396;28;20125;-85
2022/05/20 08:57:27;;;;;;;9.73;3.42;;;18.70;99.90;;;;;;4983978;28;20500;-87
2022/05/20 08:59:54;;;;;;;8.40;2.90;;;18.80;99.90;;;;;;4987735;28;20265;-86
2022/05/20 09:02:20;;;;;;;9.20;3.20;;;18.70;99.90;;;;;;4971041;28;20049;-83
2022/05/20 09:04:46;;;;;;;8.52;3.00;;;18.60;99.90;;;;;;5000282;28;20043;-85
2022/05/20 09:07:15;;;;;;;9.70;3.10;;;18.60;99.90;;;;;;4959715;28;20101;-86
2022/05/20 09:09:59;;;;;;;7.57;2.80;;;18.50;99.90;;;;;;4991307;28;20121;-83
2022/05/20 09:12:39;;;;;;;11.20;3.30;;;18.70;99.90;;;;;;4992324;28;20458;-85
2022/05/20 09:18:27;;;;;;;10.32;3.30;;;18.90;99.90;;;;;;4991201;28;20065;-87
2022/05/20 09:20:59;;;;;;;9.23;3.10;;;18.90;99.90;;;;;;4976617;28;20052;-87
2022/05/20 09:23:26;;;;;;;8.52;2.90;;;19.00;99.90;;;;;;4976121;28;20053;-86
2022/05/20 09:26:08;;;;;;;10.95;3.55;;;19.00;99.90;;;;;;4960768;28;20114;-86
2022/05/20 09:28:39;;;;;;;7.80;2.60;;;19.00;99.90;;;;;;4988474;28;20038;-86
2022/05/20 09:31:25;;;;;;;8.80;3.33;;;19.10;99.90;;;;;;4989389;28;20328;-85
2022/05/20 09:34:12;;;;;;;8.90;3.10;;;19.10;99.90;;;;;;4971593;28;20117;-84
2022/05/20 09:36:47;;;;;;;9.25;3.13;;;19.10;99.90;;;;;;4979678;28;20035;-85
2022/05/20 09:39:19;;;;;;;11.13;3.30;;;19.10;99.90;;;;;;4987117;28;20073;-85
2022/05/20 09:41:51;;;;;;;10.15;3.05;;;19.20;99.90;;;;;;4975898;28;20042;-87
2022/05/20 09:44:19;;;;;;;;;;;19.30;99.90;;;;;;4989414;28;20088;-86
2022/05/20 09:46:54;;;;;;;9.32;2.80;;;19.50;99.90;;;;;;4974262;28;20645;-87
2022/05/20 09:49:33;;;;;;;10.68;2.58;;;19.50;99.90;;;;;;4988990;28;20042;-86
2022/05/20 09:52:00;;;;;;;11.60;2.90;;;19.60;99.90;;;;;;4972636;28;20034;-87
2022/05/20 09:54:41;;;;;;;10.68;3.00;;;19.50;99.90;;;;;;4976002;28;20046;-86
2022/05/20 09:57:23;;;;;;;8.63;2.80;;;19.60;99.90;;;;;;4988848;28;20627;-86
2022/05/20 09:59:57;;;;;;;11.93;3.23;;;19.50;99.90;;;;;;4970157;28;20038;-84
2022/05/20 10:02:26;;;;;;;8.55;2.80;;;19.50;99.90;;;;;;4974313;28;20078;-85
2022/05/20 10:05:02;;;;;;;8.80;2.78;;;19.50;99.90;;;;;;4988045;28;20117;-85
2022/05/20 10:08:07;;;;;;;9.38;2.92;;;19.50;99.90;;;;;;4971277;28;20507;-86
2022/05/20 10:10:42;;;;;;;7.97;2.50;;;19.40;99.90;;;;;;4975479;28;20054;-87
2022/05/20 10:13:18;;;;;;;8.60;2.92;;;19.40;99.90;;;;;;4985909;28;20526;-89
2022/05/20 10:15:50;;;;;;;8.00;2.70;;;19.40;99.90;;;;;;4982690;28;20058;-86
2022/05/20 10:18:37;;;;;;;8.32;2.85;;;19.50;99.90;;;;;;4979011;28;20093;-87
2022/05/20 10:21:18;;;;;;;9.40;3.10;;;19.40;99.90;;;;;;4982099;28;20080;-88
2022/05/20 10:23:51;;;;;;;10.50;3.60;;;19.50;99.90;;;;;;4971528;28;20038;-87
2022/05/20 10:26:36;;;;;;;9.45;3.58;;;19.50;99.90;;;;;;4988383;28;20057;-87
2022/05/20 10:34:50;;;;;;;8.95;3.30;;;19.50;99.90;;;;;;5005540;28;20038;-87
2022/05/20 10:37:34;;;;;;;8.68;3.38;;;19.90;99.90;;;;;;4988934;28;20050;-87
2022/05/20 10:40:23;;;;;;;9.20;3.50;;;19.70;99.90;;;;;;4992523;28;20041;-86
2022/05/20 10:43:25;;;;;;;9.07;3.30;;;19.80;99.90;;;;;;4982473;28;20523;-87
2022/05/20 10:49:13;;;;;;;7.80;2.67;;;19.90;99.90;;;;;;4986492;28;20054;-88
2022/05/20 10:52:18;;;;;;;8.40;3.03;;;20.00;99.90;;;;;;4990187;28;20042;-86
2022/05/20 10:55:09;;;;;;;8.98;3.22;;;20.00;99.90;;;;;;4989924;28;20074;-87
2022/05/20 10:57:41;;;;;;;10.23;3.72;;;20.00;99.90;;;;;;4967089;28;20582;-86
2022/05/20 11:00:22;;;;;;;10.00;4.15;;;20.00;99.90;;;;;;4974934;28;20053;-88
2022/05/20 11:03:19;;;;;;;9.88;3.60;;;20.10;99.90;;;;;;4971214;28;20055;-87
2022/05/20 11:06:20;;;;;;;10.23;4.28;;;20.10;99.90;;;;;;4991061;28;20050;-86
2022/05/20 11:09:03;;;;;;;9.10;3.92;;;20.10;99.90;;;;;;4980408;28;20442;-87
2022/05/20 11:11:50;;;;;;;10.20;4.20;;;20.20;99.90;;;;;;4973780;28;20092;-86
2022/05/20 11:14:25;;;;;;;9.63;3.78;;;20.30;99.90;;;;;;4985121;28;20139;-86
2022/05/20 11:17:05;;;;;;;9.30;3.70;;;20.40;99.90;;;;;;4991348;28;20046;-86
2022/05/20 11:19:34;;;;;;;9.65;3.33;;;20.40;99.90;;;;;;4990538;28;20050;-86
2022/05/20 11:22:11;;;;;;;9.73;3.65;;;20.40;99.90;;;;;;4991070;28;20069;-86
2022/05/20 11:24:48;;;;;;;8.85;3.88;;;20.50;99.90;;;;;;4989590;28;20038;-87
2022/05/20 11:27:45;;;;;;;8.15;3.03;;;20.50;99.90;;;;;;5001363;28;20076;-87
2022/05/20 11:30:39;;;;;;;8.75;3.70;;;20.60;99.90;;;;;;4971226;28;20046;-87
2022/05/20 11:33:26;;;;;;;8.95;4.00;;;20.80;99.90;;;;;;4972934;28;20034;-86
2022/05/20 11:36:15;;;;;;;9.50;4.07;;;21.00;99.90;;;;;;4974155;28;20169;-86
2022/05/20 11:39:18;;;;;;;10.70;4.45;;;21.00;99.90;;;;;;4973861;28;20515;-87
2022/05/20 11:41:47;;;;;;;8.60;3.63;;;21.10;99.90;;;;;;4989963;28;20049;-87
2022/05/20 11:44:32;;;;;;;10.23;3.50;;;21.10;99.90;;;;;;5001024;28;20046;-87
2022/05/20 11:47:26;;;;;;;9.55;3.40;;;21.20;99.90;;;;;;4972034;28;20372;-87
2022/05/20 11:50:36;;;;;;;8.30;3.42;;;21.30;99.90;;;;;;4991673;28;20034;-86
2022/05/20 11:53:15;;;;;;;9.88;4.47;;;21.30;99.90;;;;;;4915112;28;20042;-85
2022/05/20 11:55:55;;;;;;;10.40;4.78;;;21.50;99.90;;;;;;4933712;28;20059;-86
2022/05/20 11:58:28;;;;;;;10.15;4.05;;;21.50;99.90;;;;;;4967249;28;20412;-86
2022/05/20 12:00:54;;;;;;;8.82;4.15;;;21.50;99.90;;;;;;4973763;28;20098;-87
2022/05/20 12:03:26;;;;;;;9.75;4.25;;;21.60;99.90;;;;;;4937251;28;20496;-87
2022/05/20 12:05:53;;;;;;;8.52;3.47;;;21.40;99.90;;;;;;4972554;28;20048;-87
2022/05/20 12:08:37;;;;;;;8.00;3.92;;;21.50;99.90;;;;;;4973064;28;20038;-86
2022/05/20 12:11:27;;;;;;;10.18;3.97;;;21.60;99.90;;;;;;4973038;28;20050;-87
2022/05/20 12:14:09;;;;;;;9.95;4.43;;;21.70;99.90;;;;;;4991088;28;20034;-87
2022/05/20 12:17:00;;;;;;;9.73;4.20;;;21.50;99.90;;;;;;4977221;28;20125;-86
2022/05/20 12:25:36;;;;;;;10.20;4.50;;;21.20;99.90;;;;;;5008997;28;20056;-86
2022/05/20 12:28:27;;;;;;;9.55;4.13;;;21.10;99.90;;;;;;4984085;28;20046;-86
2022/05/20 12:31:24;;;;;;;9.57;3.95;;;21.10;99.90;;;;;;4977040;28;20112;-87
2022/05/20 12:34:31;;;;;;;7.88;3.10;;;21.00;99.90;;;;;;4992395;28;20073;-87
2022/05/20 12:36:57;;;;;;;7.80;3.20;;;21.00;99.90;;;;;;4976215;28;20430;-87
2022/05/20 12:39:47;;;;;;;9.13;3.85;;;21.00;99.90;;;;;;4968516;28;20041;-86
2022/05/20 12:42:26;;;;;;;8.98;3.90;;;21.00;99.90;;;;;;4971664;28;20033;-86
2022/05/20 12:44:53;;;;;;;9.77;4.95;;;21.20;99.90;;;;;;4965802;28;20125;-86
2022/05/20 12:47:27;;;;;;;10.23;5.00;;;21.20;99.90;;;;;;4958520;28;20160;-87
2022/05/20 12:50:27;;;;;;;9.23;4.40;;;21.20;99.90;;;;;;4988170;28;20625;-87
2022/05/20 12:53:19;;;;;;;9.38;4.07;;;21.30;99.90;;;;;;4970579;28;20414;-87
2022/05/20 12:55:45;;;;;;;9.85;4.18;;;21.30;99.90;;;;;;4959383;28;20050;-89
2022/05/20 12:58:15;;;;;;;9.25;3.72;;;21.40;99.90;;;;;;4957768;28;20041;-87
2022/05/20 13:00:46;;;;;;;9.60;4.45;;;21.40;99.90;;;;;;4975183;28;20414;-87
2022/05/20 13:03:30;;;;;;;8.90;4.00;;;21.30;99.90;;;;;;4988620;28;20034;-87
2022/05/20 13:06:16;;;;;;;10.50;4.95;;;21.30;99.90;;;;;;4987664;28;20517;-88
2022/05/20 13:08:57;;;;;;;9.52;4.10;;;21.30;99.90;;;;;;4991016;28;20137;-87
2022/05/20 13:11:23;;;;;;;8.00;3.33;;;21.20;99.90;;;;;;4974323;28;20518;-86
2022/05/20 13:13:52;;;;;;;8.82;3.53;;;21.10;99.90;;;;;;4990967;28;20034;-86
2022/05/20 13:16:24;;;;;;;9.30;3.58;;;20.90;99.90;;;;;;4991915;28;20042;-87
2022/05/20 13:19:08;;;;;;;8.63;3.60;;;20.80;99.90;;;;;;4962803;28;20038;-87
2022/05/20 13:21:42;;;;;;;8.20;3.30;;;20.60;99.90;;;;;;4983611;28;20036;-89
2022/05/20 13:24:15;;;;;;;12.32;4.07;;;20.40;99.90;;;;;;4976614;28;20054;-87
2022/05/20 13:26:42;;;;;;;9.48;4.28;;;20.30;99.90;;;;;;4990842;28;20490;-89
2022/05/20 13:29:20;;;;;;;10.07;4.15;;;20.10;99.90;;;;;;4958649;28;20088;-87
2022/05/20 13:31:46;;;;;;;8.13;4.20;;;20.00;99.90;;;;;;4974581;28;20046;-89
2022/05/20 13:34:12;;;;;;;9.63;4.00;;;19.90;99.90;;;;;;4977117;28;20505;-88
2022/05/20 13:36:44;;;;;;;8.38;3.55;;;19.90;99.90;;;;;;4990468;28;20103;-89
2022/05/20 13:39:15;;;;;;;8.97;4.17;;;19.90;99.90;;;;;;4975262;28;20120;-86